Time;durP1;ratioP1;P1;durP2;ratioP2;P2;SDS_P1;SDS_P2;PMS_P1;PMS_P2;Temp;Humidity;BMP_temperature;BMP_pressure;BME280_temperature;BME280_humidity;BME280_pressure;Samples;Min_cycle;Max_cycle;Signal;HPM_P1;HPM_P2
2022/08/16 00:01:30;;;;;;;;;;;25.70;44.40;;;24.12;46.34;100234.53;12252125;19;19911;-91
2022/08/16 00:05:32;;;;;;;;;;;26.00;44.60;;;24.04;46.50;100226.63;12255002;19;19923;-91
2022/08/16 00:09:33;;;;;;;;;;;25.70;44.50;;;23.67;46.38;100168.84;12250362;19;19915;-91
2022/08/16 00:13:35;;;;;;;;;;;25.70;44.50;;;24.10;46.07;100238.41;12254768;19;20267;-91
2022/08/16 00:17:37;;;;;;;;;;;25.70;44.30;;;23.93;46.32;100209.25;12254892;19;20361;-90
2022/08/16 00:21:39;;;;;;;;;;;25.70;44.10;;;23.84;46.38;100213.00;12249678;19;20385;-90
2022/08/16 00:25:40;;;;;;;;;;;25.60;44.10;;;23.40;46.53;100185.25;12253726;19;19922;-90
2022/08/16 00:29:42;;;;;;;;;;;25.60;43.90;;;23.62;46.58;100236.84;12247148;19;19919;-91
2022/08/16 00:33:43;;;;;;;;;;;25.40;43.70;;;23.50;46.41;100233.00;12251241;19;19915;-90
2022/08/16 00:37:46;;;;;;;;;;;25.40;43.90;;;23.50;46.60;100242.84;12250572;19;19911;-91
2022/08/16 00:41:49;;;;;;;;;;;25.30;44.00;;;23.52;46.57;100251.44;12247564;19;19943;-90
2022/08/16 00:46:21;;;;;;;;;;;25.30;44.30;;;23.62;46.88;100268.03;12251923;19;19930;-90
2022/08/16 00:50:26;;;;;;;;;;;25.20;44.20;;;23.37;46.53;100265.56;12248025;19;19917;-90
2022/08/16 00:54:29;;;;;;;;;;;25.20;44.20;;;23.30;46.90;100275.28;12251681;19;19988;-90
2022/08/16 00:58:33;;;;;;;;;;;25.10;43.90;;;23.16;46.82;100270.75;12249089;19;19946;-91
2022/08/16 01:02:35;;;;;;;;;;;25.30;44.10;;;23.09;46.99;100267.97;12247584;19;19911;-91
2022/08/16 01:06:37;;;;;;;;;;;25.00;44.20;;;22.87;46.68;100237.63;12251184;19;19922;-90
2022/08/16 01:10:39;;;;;;;;;;;24.90;44.30;;;23.07;47.03;100269.16;12247129;19;21335;-89
2022/08/16 01:14:48;;;;;;;;;;;24.90;44.00;;;22.86;46.87;100259.94;12250716;19;19911;-92
2022/08/16 01:18:52;;;;;;;;;;;24.80;44.10;;;23.06;46.86;100294.13;12248997;19;20314;-90
2022/08/16 01:23:06;;;;;;;;;;;24.70;44.20;;;22.64;47.26;100229.63;12245149;19;19935;-91
2022/08/16 01:27:12;;;;;;;;;;;24.70;44.20;;;22.75;46.84;100258.50;12249620;19;20261;-91
2022/08/16 01:31:15;;;;;;;;;;;24.70;44.20;;;22.83;47.09;100281.59;12250075;19;19954;-90
2022/08/16 01:35:26;;;;;;;;;;;24.70;44.20;;;22.30;46.97;100198.03;12252055;19;19915;-90
2022/08/16 01:39:29;;;;;;;;;;;24.70;44.30;;;22.47;47.17;100236.88;12244551;19;19930;-91
2022/08/16 01:43:33;;;;;;;;;;;24.70;44.50;;;22.45;47.36;100240.69;12255958;19;20230;-91
2022/08/16 01:47:38;;;;;;;;;;;24.60;44.50;;;22.43;47.17;100243.53;12244576;19;19934;-90
2022/08/16 01:51:42;;;;;;;;;;;24.60;44.40;;;22.62;47.52;100279.53;12245879;19;20222;-90
2022/08/16 01:55:44;;;;;;;;;;;24.50;44.40;;;22.42;47.40;100251.69;12267009;19;19950;-90
2022/08/16 01:59:47;;;;;;;;;;;24.70;44.50;;;22.50;47.27;100256.97;12247460;19;20279;-90
2022/08/16 02:03:52;;;;;;;;;;;24.40;44.40;;;22.40;47.37;100251.84;12245339;19;20037;-90
2022/08/16 02:07:54;;;;;;;;;;;24.40;44.40;;;22.41;47.41;100266.81;12245488;19;20308;-91
2022/08/16 02:11:58;;;;;;;;;;;24.40;44.50;;;22.03;47.38;100194.78;12244256;19;19914;-90
2022/08/16 02:16:00;;;;;;;;;;;24.30;44.40;;;22.32;47.51;100262.53;12245962;19;20223;-91
2022/08/16 02:20:03;;;;;;;;;;;24.30;44.40;;;22.24;47.47;100260.72;12257947;19;19939;-89
2022/08/16 02:24:05;;;;;;;;;;;24.30;44.40;;;22.01;47.34;100238.53;12246166;19;19922;-90
2022/08/16 02:28:06;;;;;;;;;;;24.20;44.40;;;21.61;47.64;100193.25;12245368;19;19926;-91
2022/08/16 02:32:11;;;;;;;;;;;24.10;44.40;;;21.91;47.40;100252.00;12243030;19;19926;-91
2022/08/16 02:36:13;;;;;;;;;;;24.30;44.50;;;21.91;47.64;100257.31;12245366;19;19918;-90
2022/08/16 02:40:16;;;;;;;;;;;24.00;44.50;;;21.77;47.33;100256.19;12244404;19;19926;-91
2022/08/16 02:44:19;;;;;;;;;;;23.90;44.50;;;21.90;47.92;100276.94;12254900;19;19922;-89
2022/08/16 02:48:24;;;;;;;;;;;24.20;44.70;;;21.91;47.74;100286.56;12253107;19;19914;-90
2022/08/16 02:52:26;;;;;;;;;;;23.90;44.80;;;22.09;47.91;100313.78;12274722;19;19933;-89
2022/08/16 02:56:31;;;;;;;;;;;23.90;45.00;;;21.81;48.00;100262.00;12291563;19;19915;-90
2022/08/16 03:00:33;;;;;;;;;;;23.90;45.10;;;22.06;47.85;100294.66;12290799;19;19911;-89
2022/08/16 03:04:37;;;;;;;;;;;24.10;45.20;;;22.09;47.73;100308.47;12275517;19;19917;-90
2022/08/16 03:08:39;;;;;;;;;;;24.10;45.30;;;21.84;48.00;100259.00;12266061;19;19915;-90
2022/08/16 03:12:42;;;;;;;;;;;24.20;45.20;;;22.25;48.04;100334.22;12266485;19;19914;-89
2022/08/16 03:16:45;;;;;;;;;;;23.90;45.10;;;21.94;47.82;100285.41;12268856;19;20570;-89
2022/08/16 03:20:47;;;;;;;;;;;23.80;44.90;;;21.79;47.77;100269.28;12267924;19;19922;-89
2022/08/16 03:24:49;;;;;;;;;;;23.80;44.90;;;21.72;48.07;100260.34;12265767;19;20251;-89
2022/08/16 03:28:51;;;;;;;;;;;23.90;45.10;;;21.61;48.41;100259.69;12262648;19;19931;-89
2022/08/16 03:32:55;;;;;;;;;;;23.80;45.10;;;21.90;48.21;100308.00;12257745;19;19925;-89
2022/08/16 03:36:59;;;;;;;;;;;23.80;45.10;;;21.96;48.21;100315.31;12266994;19;19974;-89
2022/08/16 03:41:04;;;;;;;;;;;23.80;45.10;;;22.06;48.11;100334.56;12264467;19;19930;-89
2022/08/16 03:45:07;;;;;;;;;;;23.80;45.00;;;21.89;48.19;100331.09;12267596;19;19927;-89
2022/08/16 03:49:11;;;;;;;;;;;23.80;45.00;;;21.74;47.96;100319.47;12264254;19;19932;-90
2022/08/16 03:53:13;;;;;;;;;;;23.70;44.90;;;21.79;48.10;100336.59;12267957;19;20594;-89
2022/08/16 03:57:15;;;;;;;;;;;23.60;44.80;;;21.60;48.08;100321.81;12267738;19;19925;-90
2022/08/16 04:01:16;;;;;;;;;;;23.60;44.80;;;21.60;48.23;100335.13;12265186;19;19910;-88
2022/08/16 04:05:18;;;;;;;;;;;23.50;44.80;;;21.32;48.38;100300.03;12252865;19;20326;-89
2022/08/16 04:09:21;;;;;;;;;;;23.50;44.80;;;21.36;48.35;100316.44;12253262;19;19933;-88
2022/08/16 04:13:24;;;;;;;;;;;23.40;44.80;;;21.28;48.14;100313.78;12255038;19;19911;-89
2022/08/16 04:17:26;;;;;;;;;;;23.50;45.00;;;21.31;48.49;100329.41;12255535;19;19923;-88
2022/08/16 04:21:31;;;;;;;;;;;23.30;45.10;;;20.98;48.53;100277.09;12249369;19;19947;-88
2022/08/16 04:25:36;;;;;;;;;;;23.30;45.10;;;21.05;48.63;100295.84;12254108;19;20349;-89
2022/08/16 04:29:38;;;;;;;;;;;23.60;45.30;;;21.27;48.74;100328.06;12250017;19;19922;-90
2022/08/16 04:33:40;;;;;;;;;;;23.30;45.30;;;21.30;48.46;100346.31;12250815;19;19914;-89
2022/08/16 04:37:44;;;;;;;;;;;23.30;45.40;;;21.38;48.36;100349.03;12252691;19;19983;-88
2022/08/16 04:41:52;;;;;;;;;;;23.20;45.40;;;21.39;48.94;100353.38;12247264;19;19922;-90
2022/08/16 04:45:54;;;;;;;;;;;23.20;45.40;;;21.38;48.77;100362.31;12251484;19;19921;-90
2022/08/16 04:49:59;;;;;;;;;;;23.20;45.40;;;21.54;48.48;100388.06;12247084;19;19939;-89
2022/08/16 04:54:01;;;;;;;;;;;23.20;45.50;;;21.46;48.91;100380.91;12249778;19;19929;-90
2022/08/16 04:58:02;;;;;;;;;;;23.30;45.50;;;21.46;48.44;100383.56;12250989;19;19921;-88
2022/08/16 05:02:04;;;;;;;;;;;23.60;45.60;;;21.51;48.70;100402.50;12246755;19;20258;-88
2022/08/16 05:06:06;;;;;;;;;;;23.30;45.60;;;20.98;48.79;100308.09;12249750;19;19926;-90
2022/08/16 05:10:09;;;;;;;;;;;23.20;45.70;;;21.45;48.89;100373.97;12245615;19;20322;-89
2022/08/16 05:14:11;;;;;;;;;;;23.30;45.80;;;21.39;48.75;100375.44;12248504;19;20337;-89
2022/08/16 05:18:14;;;;;;;;;;;23.30;45.90;;;21.50;49.02;100376.94;12249324;19;19919;-90
2022/08/16 05:22:23;;;;;;;;;;;23.40;46.00;;;21.37;48.93;100345.53;12248084;19;19913;-89
2022/08/16 05:26:29;;;;;;;;;;;23.50;46.10;;;21.33;48.93;100330.91;12248982;19;20345;-89
2022/08/16 05:30:31;;;;;;;;;;;23.40;46.20;;;21.57;49.21;100367.31;12247263;19;19935;-90
2022/08/16 05:34:33;;;;;;;;;;;23.40;46.20;;;21.36;49.48;100327.94;12247538;19;20279;-90
2022/08/16 05:38:35;;;;;;;;;;;23.50;46.40;;;21.45;49.38;100336.75;12246341;19;19926;-90
2022/08/16 05:42:39;;;;;;;;;;;23.80;46.60;;;21.54;49.46;100337.59;12244622;19;19924;-88
2022/08/16 05:46:41;;;;;;;;;;;23.60;46.60;;;21.79;49.10;100365.00;12247673;19;19925;-91
2022/08/16 05:50:49;;;;;;;;;;;23.60;46.70;;;21.78;49.34;100360.69;12246543;19;19915;-90
2022/08/16 05:54:51;;;;;;;;;;;23.70;46.50;;;21.96;49.19;100379.13;12248656;19;19922;-90
2022/08/16 05:58:53;;;;;;;;;;;23.80;47.20;;;22.02;49.62;100386.44;12249032;19;19926;-89
2022/08/16 06:02:56;;;;;;;;;;;23.80;47.10;;;21.93;49.49;100355.50;12245409;19;19954;-88
2022/08/16 06:07:24;;;;;;;;;;;23.90;47.30;;;22.00;49.21;100351.19;12247735;19;19921;-88
2022/08/16 06:11:30;;;;;;;;;;;24.00;47.60;;;22.07;49.49;100320.28;12245489;19;19919;-89
2022/08/16 06:15:35;;;;;;;;;;;24.10;48.30;;;22.41;49.63;100349.28;12247018;19;20322;-90
2022/08/16 06:19:38;;;;;;;;;;;24.30;48.20;;;22.75;49.34;100385.47;12247160;19;19915;-88
2022/08/16 06:23:48;;;;;;;;;;;24.50;48.20;;;22.73;49.91;100359.00;12246749;19;19922;-87
2022/08/16 06:27:51;;;;;;;;;;;24.70;48.00;;;23.16;49.62;100406.59;12246273;19;19943;-90
2022/08/16 06:31:54;;;;;;;;;;;24.80;47.80;;;23.38;49.61;100432.44;12245230;19;19929;-89
2022/08/16 06:35:56;;;;;;;;;;;24.90;48.20;;;23.38;49.61;100411.13;12246386;19;19921;-89
2022/08/16 06:39:58;;;;;;;;;;;25.10;48.10;;;23.35;49.59;100398.16;12241681;19;20282;-87
2022/08/16 06:44:10;;;;;;;;;;;25.10;48.00;;;23.46;49.92;100406.75;12242173;19;19954;-89
2022/08/16 06:48:12;;;;;;;;;;;25.30;48.10;;;23.38;49.75;100384.47;12240429;19;19944;-88
2022/08/16 06:52:15;;;;;;;;;;;25.40;48.10;;;23.54;49.80;100396.06;12239972;19;19933;-89
2022/08/16 06:56:17;;;;;;;;;;;25.50;48.10;;;23.55;49.84;100384.41;12244046;19;19919;-88
2022/08/16 07:00:29;;;;;;;;;;;25.60;47.70;;;23.67;49.99;100395.47;12236592;19;19951;-88
2022/08/16 07:04:41;;;;;;;;;;;25.70;47.80;;;23.80;49.70;100409.06;12243168;19;20330;-87
2022/08/16 07:08:49;;;;;;;;;;;25.80;47.70;;;24.22;50.17;100472.59;12244092;19;19983;-88
2022/08/16 07:12:52;;;;;;;;;;;25.80;47.90;;;24.31;50.05;100480.50;12241352;19;19930;-87
2022/08/16 07:16:56;;;;;;;;;;;25.90;47.80;;;24.06;50.03;100430.84;12245943;19;19918;-88
2022/08/16 07:20:58;;;;;;;;;;;26.00;48.30;;;24.28;49.76;100455.00;12236955;19;19915;-89
2022/08/16 07:25:00;;;;;;;;;;;26.20;48.20;;;24.45;50.16;100471.72;12241228;19;19923;-88
2022/08/16 07:29:02;;;;;;;;;;;26.10;47.80;;;24.66;50.26;100487.88;12238079;19;19930;-89
2022/08/16 07:33:04;;;;;;;;;;;26.20;48.10;;;24.85;49.91;100491.84;12231278;19;20399;-88
2022/08/16 07:37:10;;;;;;;;;;;26.40;48.30;;;25.06;50.19;100483.09;12237069;19;19918;-89
2022/08/16 07:41:35;;;;;;;;;;;26.50;48.50;;;25.26;50.49;100477.22;12245079;19;21298;-87
2022/08/16 07:45:38;;;;;;;;;;;26.70;48.50;;;25.45;50.32;100479.28;12254289;19;19926;-88
2022/08/16 07:49:39;;;;;;;;;;;27.00;48.30;;;25.60;50.43;100469.38;12250710;19;19922;-87
2022/08/16 07:53:43;;;;;;;;;;;27.10;48.70;;;26.02;50.32;100485.66;12255869;19;19915;-89
2022/08/16 07:57:46;;;;;;;;;;;27.40;48.50;;;26.14;50.09;100480.63;12256987;19;19944;-88
2022/08/16 08:01:52;;;;;;;;;;;27.60;48.30;;;26.14;49.85;100464.56;12253233;19;19915;-89
2022/08/16 08:05:54;;;;;;;;;;;27.80;47.90;;;26.42;49.98;100488.69;12256373;19;19923;-87
2022/08/16 08:09:56;;;;;;;;;;;27.90;48.40;;;26.44;50.25;100463.38;12252009;19;19915;-87
2022/08/16 08:13:59;;;;;;;;;;;28.10;48.20;;;26.87;50.21;100495.41;12257173;19;19991;-88
2022/08/16 08:18:01;;;;;;;;;;;28.40;48.50;;;27.04;49.96;100479.84;12256461;19;19911;-89
2022/08/16 08:22:08;;;;;;;;;;;28.60;48.50;;;26.95;50.40;100442.66;12253434;19;19921;-88
2022/08/16 08:26:16;;;;;;;;;;;28.70;48.50;;;27.32;49.97;100489.66;12255420;19;19923;-89
2022/08/16 08:30:18;;;;;;;;;;;29.00;48.00;;;27.49;49.79;100491.00;12250101;19;19926;-89
2022/08/16 08:34:22;;;;;;;;;;;29.10;48.00;;;27.69;49.84;100493.72;12254413;19;19925;-89
2022/08/16 08:38:24;;;;;;;;;;;29.50;48.10;;;27.94;50.02;100496.69;12254658;19;19929;-88
2022/08/16 08:42:27;;;;;;;;;;;29.50;48.00;;;27.93;49.61;100457.44;12252558;19;19923;-88
2022/08/16 08:46:29;;;;;;;;;;;29.70;47.70;;;28.11;49.94;100469.44;12255414;19;20341;-87
2022/08/16 08:50:32;;;;;;;;;;;29.90;47.60;;;28.61;49.49;100526.28;12249837;19;20263;-89
2022/08/16 08:54:35;;;;;;;;;;;30.10;47.20;;;28.40;49.77;100463.63;12255115;19;19975;-87
2022/08/16 08:58:37;;;;;;;;;;;30.20;47.40;;;28.89;49.57;100516.13;12256718;19;20275;-89
2022/08/16 09:02:59;;;;;;;;;;;30.40;47.10;;;29.11;49.38;100532.00;12250766;19;20350;-86
2022/08/16 09:07:02;;;;;;;;;;;30.60;46.80;;;28.97;48.88;100501.59;12253580;19;19915;-87
2022/08/16 09:11:07;;;;;;;;;;;30.70;46.50;;;29.18;49.41;100523.91;12251770;19;19994;-87
2022/08/16 09:15:13;;;;;;;;;;;30.90;46.60;;;29.34;48.95;100537.72;12251771;19;20341;-88
2022/08/16 09:19:19;;;;;;;;;;;30.90;46.30;;;29.16;49.15;100482.94;12252283;19;19919;-87
2022/08/16 09:23:22;;;;;;;;;;;31.10;46.20;;;29.34;48.78;100508.13;12252854;19;20341;-88
2022/08/16 09:27:24;;;;;;;;;;;31.10;46.10;;;29.67;49.04;100533.25;12251414;19;19903;-87
2022/08/16 09:31:26;;;;;;;;;;;31.20;46.00;;;29.40;48.93;100470.63;12247271;19;19922;-88
2022/08/16 09:35:28;;;;;;;;;;;31.30;45.80;;;29.90;48.80;100530.84;12249980;19;20311;-88
2022/08/16 09:39:29;;;;;;;;;;;31.40;45.40;;;29.82;48.64;100511.44;12249788;19;19988;-87
2022/08/16 09:43:31;;;;;;;;;;;31.50;45.50;;;30.01;48.05;100517.75;12251776;19;19942;-90
2022/08/16 09:47:39;;;;;;;;;;;31.60;45.30;;;30.04;48.12;100517.28;12250422;19;19982;-89
2022/08/16 09:51:41;;;;;;;;;;;31.70;45.10;;;30.21;48.24;100521.09;12249659;19;19925;-89
2022/08/16 09:55:51;;;;;;;;;;;31.70;45.10;;;30.19;47.77;100509.69;12251199;19;19918;-87
2022/08/16 09:59:52;;;;;;;;;;;31.80;44.80;;;30.21;47.94;100497.66;12247840;19;19934;-87
2022/08/16 10:03:56;;;;;;;;;;;31.90;45.00;;;30.33;47.60;100497.81;12249703;19;19911;-87
2022/08/16 10:07:58;;;;;;;;;;;31.90;45.10;;;30.57;48.12;100533.03;12251751;19;19910;-88
2022/08/16 10:16:19;;;;;;;;;;;32.10;44.80;;;30.64;47.67;100513.06;12248330;19;19926;-88
2022/08/16 10:20:24;;;;;;;;;;;32.20;44.60;;;30.76;47.24;100521.28;12245497;19;19919;-89
2022/08/16 10:24:26;;;;;;;;;;;32.20;44.50;;;30.89;47.42;100527.59;12246216;19;19943;-88
2022/08/16 10:28:28;;;;;;;;;;;32.30;44.80;;;30.72;47.33;100482.31;12244565;19;20474;-89
2022/08/16 10:32:30;;;;;;;;;;;32.40;44.40;;;31.05;47.25;100524.28;12244883;19;19931;-88
2022/08/16 10:36:32;;;;;;;;;;;32.50;44.60;;;30.80;47.22;100455.06;12246352;19;20336;-87
2022/08/16 10:40:34;;;;;;;;;;;32.60;44.50;;;31.35;46.73;100526.22;12244855;19;19911;-88
2022/08/16 10:44:35;;;;;;;;;;;32.70;44.50;;;31.47;47.03;100517.19;12244545;19;19919;-89
2022/08/16 10:48:39;;;;;;;;;;;32.90;44.40;;;31.59;47.05;100514.53;12246079;19;19932;-89
2022/08/16 10:52:40;;;;;;;;;;;33.00;44.70;;;31.76;46.67;100517.41;12244896;19;20296;-89
2022/08/16 10:56:42;;;;;;;;;;;33.10;44.20;;;31.67;46.33;100495.28;12247111;19;20261;-87
2022/08/16 11:00:45;;;;;;;;;;;33.20;44.00;;;31.84;46.28;100505.44;12245047;19;19919;-89
2022/08/16 11:04:47;;;;;;;;;;;33.50;44.10;;;31.86;46.02;100492.53;12245192;19;19932;-89
2022/08/16 11:08:49;;;;;;;;;;;33.40;43.50;;;31.74;45.94;100487.94;12244002;19;19922;-88
2022/08/16 11:12:51;;;;;;;;;;;33.40;43.40;;;31.79;46.12;100491.84;12248305;19;19911;-88
2022/08/16 11:16:52;;;;;;;;;;;33.40;43.30;;;31.83;46.16;100477.63;12262734;19;20237;-88
2022/08/16 11:20:55;;;;;;;;;;;33.50;43.00;;;31.95;45.67;100493.91;12258577;19;19923;-88
2022/08/16 11:24:57;;;;;;;;;;;33.60;43.00;;;31.76;45.48;100471.50;12260627;19;19911;-88
2022/08/16 11:28:59;;;;;;;;;;;33.60;43.30;;;31.75;45.61;100467.97;12257087;19;20254;-88
2022/08/16 11:33:01;;;;;;;;;;;33.70;43.00;;;31.77;45.22;100464.22;12254925;19;19931;-87
2022/08/16 11:37:02;;;;;;;;;;;33.60;42.70;;;31.88;44.90;100479.63;12260002;19;19917;-88
2022/08/16 11:41:04;;;;;;;;;;;33.70;43.00;;;32.07;45.27;100504.72;12257216;19;19915;-87
2022/08/16 11:45:22;;;;;;;;;;;33.70;42.70;;;31.98;45.06;100473.72;12259640;19;19947;-87
2022/08/16 11:49:23;;;;;;;;;;;33.50;42.40;;;32.03;45.34;100477.34;12253199;19;19914;-88
2022/08/16 11:53:27;;;;;;;;;;;33.80;42.70;;;32.09;44.99;100471.00;12256019;19;19919;-89
2022/08/16 11:57:28;;;;;;;;;;;33.90;42.40;;;32.13;44.70;100477.56;12255373;19;20361;-88
2022/08/16 12:01:30;;;;;;;;;;;33.90;42.00;;;32.50;44.53;100512.53;12254295;19;20321;-88
2022/08/16 12:05:33;;;;;;;;;;;34.00;41.60;;;32.30;44.41;100463.41;12254728;19;20336;-88
2022/08/16 12:09:37;;;;;;;;;;;34.00;42.00;;;32.31;44.48;100456.94;12253663;19;19918;-88
2022/08/16 12:13:41;;;;;;;;;;;34.10;42.50;;;32.64;44.49;100513.13;12254951;19;19939;-89
2022/08/16 12:17:43;;;;;;;;;;;34.10;41.70;;;32.41;43.87;100478.78;12255048;19;19923;-89
2022/08/16 12:21:45;;;;;;;;;;;34.20;42.00;;;32.60;43.92;100511.97;12250993;19;19919;-88
2022/08/16 12:25:46;;;;;;;;;;;34.10;41.50;;;32.57;44.25;100510.56;12252622;19;20350;-88
2022/08/16 12:29:49;;;;;;;;;;;34.10;41.30;;;32.39;43.90;100470.91;12251301;19;20253;-89
2022/08/16 12:33:52;;;;;;;;;;;34.10;41.10;;;32.74;44.36;100523.38;12254409;19;19923;-87
2022/08/16 12:37:55;;;;;;;;;;;34.20;40.50;;;32.56;43.54;100479.16;12254240;19;19932;-88
2022/08/16 12:41:56;;;;;;;;;;;34.20;41.30;;;32.81;43.67;100510.53;12250395;19;19919;-88
2022/08/16 12:45:58;;;;;;;;;;;34.20;41.20;;;32.84;43.63;100504.66;12255577;19;19914;-87
2022/08/16 12:50:00;;;;;;;;;;;34.20;41.00;;;32.58;43.56;100452.69;12251538;19;19922;-89
2022/08/16 12:54:06;;;;;;;;;;;34.30;41.20;;;32.90;43.15;100509.13;12252921;19;19921;-88
2022/08/16 12:58:07;;;;;;;;;;;34.40;40.70;;;32.60;43.56;100471.41;12254269;19;19931;-90
2022/08/16 13:02:09;;;;;;;;;;;34.30;40.70;;;32.88;43.26;100516.63;12248637;19;19928;-87
2022/08/16 13:06:12;;;;;;;;;;;34.30;40.80;;;32.93;43.38;100514.03;12251660;19;19915;-88
2022/08/16 13:10:14;;;;;;;;;;;34.40;41.20;;;32.95;42.98;100501.09;12249838;19;19923;-88
2022/08/16 13:14:16;;;;;;;;;;;34.40;40.70;;;33.03;43.07;100500.78;12251433;19;19926;-88
2022/08/16 13:18:18;;;;;;;;;;;34.40;40.60;;;33.11;43.09;100509.56;12252194;19;19927;-89
2022/08/16 13:22:20;;;;;;;;;;;34.40;40.40;;;32.69;43.00;100442.94;12248437;19;19936;-88
2022/08/16 13:26:23;;;;;;;;;;;34.40;40.50;;;32.90;42.85;100468.53;12251015;19;19953;-89
2022/08/16 13:30:26;;;;;;;;;;;34.60;40.50;;;33.01;42.92;100491.25;12248252;19;19956;-87
2022/08/16 13:34:28;;;;;;;;;;;34.60;41.00;;;33.13;42.56;100502.03;12251878;19;19922;-87
2022/08/16 13:38:30;;;;;;;;;;;34.50;40.10;;;32.81;42.63;100442.91;12253283;19;20343;-87
2022/08/16 13:42:31;;;;;;;;;;;34.60;40.10;;;32.64;42.78;100426.59;12250926;19;19948;-88
2022/08/16 13:46:33;;;;;;;;;;;34.60;40.00;;;32.98;42.58;100478.97;12253764;19;19952;-87
2022/08/16 13:50:35;;;;;;;;;;;34.50;40.20;;;33.08;42.17;100480.28;12251886;19;19943;-86
2022/08/16 13:54:37;;;;;;;;;;;34.50;39.90;;;32.80;42.38;100416.91;12251598;19;19923;-88
2022/08/16 13:58:38;;;;;;;;;;;34.60;40.00;;;33.04;42.27;100451.00;12252847;19;20803;-88
2022/08/16 14:02:40;;;;;;;;;;;34.60;40.00;;;33.31;42.08;100498.34;12248013;19;19910;-87
2022/08/16 14:06:42;;;;;;;;;;;34.70;40.30;;;33.07;41.64;100452.41;12249422;19;20284;-88
2022/08/16 14:10:43;;;;;;;;;;;34.70;39.80;;;32.99;42.18;100425.69;12242011;19;19910;-88
2022/08/16 14:14:45;;;;;;;;;;;34.70;39.60;;;33.45;41.96;100486.97;12248027;19;19919;-87
2022/08/16 14:18:47;;;;;;;;;;;34.80;40.20;;;33.47;42.13;100486.72;12249190;19;19925;-87
2022/08/16 14:22:48;;;;;;;;;;;34.90;39.50;;;33.39;41.76;100477.09;12247313;19;19914;-87
2022/08/16 14:26:51;;;;;;;;;;;34.90;39.30;;;33.34;41.60;100479.72;12249165;19;20522;-88
2022/08/16 14:30:53;;;;;;;;;;;34.90;39.20;;;33.41;41.47;100499.34;12247335;19;19911;-89
2022/08/16 14:34:56;;;;;;;;;;;34.80;39.10;;;33.34;41.31;100487.84;12246864;19;19919;-85
2022/08/16 14:38:59;;;;;;;;;;;34.90;38.20;;;33.28;41.32;100486.91;12248319;19;19919;-86
2022/08/16 14:43:01;;;;;;;;;;;34.90;38.70;;;33.35;41.52;100486.78;12244554;19;19930;-86
2022/08/16 14:47:04;;;;;;;;;;;34.80;39.30;;;33.36;41.33;100480.31;12244625;19;19927;-88
2022/08/16 14:51:05;;;;;;;;;;;34.80;39.10;;;33.36;41.25;100491.13;12244112;19;19919;-87
2022/08/16 14:55:08;;;;;;;;;;;34.80;38.70;;;33.40;41.42;100486.88;12245804;19;19915;-87
2022/08/16 14:59:09;;;;;;;;;;;34.80;39.00;;;33.40;41.21;100486.03;12247239;19;19953;-87
2022/08/16 15:03:11;;;;;;;;;;;34.80;38.50;;;33.31;41.37;100476.69;12246829;19;20341;-86
2022/08/16 15:07:13;;;;;;;;;;;34.80;38.50;;;33.26;41.19;100470.09;12245511;19;19982;-86
2022/08/16 15:11:14;;;;;;;;;;;34.80;38.60;;;33.20;40.91;100464.84;12244868;19;19915;-86
2022/08/16 15:15:19;;;;;;;;;;;34.80;38.80;;;33.19;41.11;100457.75;12246854;19;19918;-87
2022/08/16 15:19:22;;;;;;;;;;;34.70;38.80;;;33.37;40.80;100473.00;12246833;19;19934;-86
2022/08/16 15:23:24;;;;;;;;;;;34.80;38.70;;;33.46;40.55;100479.69;12243379;19;19919;-87
2022/08/16 15:27:28;;;;;;;;;;;34.80;38.40;;;33.36;40.36;100464.06;12243439;19;19957;-86
2022/08/16 15:31:30;;;;;;;;;;;34.80;38.20;;;33.39;40.47;100468.16;12241937;19;19978;-88
2022/08/16 15:35:32;;;;;;;;;;;34.90;38.40;;;33.48;40.98;100467.53;12244767;19;19922;-86
2022/08/16 15:39:34;;;;;;;;;;;34.90;38.30;;;33.38;39.96;100459.22;12244610;19;19944;-86
2022/08/16 15:43:35;;;;;;;;;;;34.90;38.30;;;33.34;40.43;100455.34;12244271;19;19935;-86
2022/08/16 15:47:38;;;;;;;;;;;34.90;38.20;;;33.52;40.48;100484.13;12238357;19;19927;-87
2022/08/16 15:51:43;;;;;;;;;;;34.90;38.20;;;33.54;40.33;100487.44;12235392;19;20290;-87
2022/08/16 15:55:47;;;;;;;;;;;34.90;37.90;;;33.43;40.44;100478.28;12239358;19;19976;-86
2022/08/16 15:59:48;;;;;;;;;;;34.90;37.90;;;33.48;40.42;100483.78;12244847;19;19916;-86
2022/08/16 16:03:50;;;;;;;;;;;34.90;37.90;;;33.45;40.03;100488.84;12255906;19;19915;-87
2022/08/16 16:07:52;;;;;;;;;;;34.90;38.20;;;33.45;39.92;100483.44;12256944;19;20233;-87
2022/08/16 16:11:54;;;;;;;;;;;34.90;38.40;;;33.43;39.84;100486.41;12255821;19;20316;-87
2022/08/16 16:15:59;;;;;;;;;;;34.80;38.00;;;33.40;39.57;100497.69;12258867;19;19930;-86
2022/08/16 16:20:04;;;;;;;;;;;34.80;37.70;;;33.27;39.60;100488.00;12256042;19;20253;-86
2022/08/16 16:24:06;;;;;;;;;;;34.80;37.80;;;33.34;40.04;100490.53;12256602;19;20333;-87
2022/08/16 16:28:08;;;;;;;;;;;34.80;37.60;;;33.38;39.51;100501.72;12254875;19;20269;-86
2022/08/16 16:32:09;;;;;;;;;;;34.70;37.50;;;33.34;39.97;100508.69;12254640;19;19911;-88
2022/08/16 16:36:14;;;;;;;;;;;34.70;37.40;;;33.30;39.64;100500.22;12257879;19;19923;-87
2022/08/16 16:40:15;;;;;;;;;;;34.70;37.40;;;33.23;39.79;100491.41;12255430;19;20285;-87
2022/08/16 16:44:17;;;;;;;;;;;34.70;37.20;;;33.19;39.54;100501.06;12256145;19;19918;-88
2022/08/16 16:48:18;;;;;;;;;;;34.60;37.30;;;33.20;39.34;100518.97;12254248;19;19940;-87
2022/08/16 16:52:20;;;;;;;;;;;34.80;37.40;;;33.11;39.53;100509.56;12251358;19;19926;-87
2022/08/16 16:56:22;;;;;;;;;;;34.60;37.30;;;32.95;39.40;100497.59;12257494;19;19922;-87
2022/08/16 17:00:27;;;;;;;;;;;34.60;37.40;;;33.03;39.24;100516.19;12252851;19;19943;-88
2022/08/16 17:04:28;;;;;;;;;;;34.50;37.30;;;32.93;39.43;100516.75;12256766;19;19919;-88
2022/08/16 17:08:30;;;;;;;;;;;34.40;37.30;;;32.87;39.30;100531.22;12255676;19;19914;-87
2022/08/16 17:12:32;;;;;;;;;;;34.40;37.70;;;32.84;39.05;100537.13;12253311;19;19907;-88
2022/08/16 17:16:33;;;;;;;;;;;34.30;37.30;;;32.78;39.37;100528.06;12257596;19;19939;-86
2022/08/16 17:20:35;;;;;;;;;;;34.20;37.20;;;32.64;39.09;100520.44;12257757;19;19923;-87
2022/08/16 17:24:37;;;;;;;;;;;34.20;37.30;;;32.59;39.38;100523.81;12255302;19;19932;-87
2022/08/16 17:28:38;;;;;;;;;;;34.10;37.40;;;32.59;39.21;100530.09;12257543;19;20256;-87
2022/08/16 17:32:40;;;;;;;;;;;34.10;37.70;;;32.56;39.32;100530.53;12253348;19;19927;-87
2022/08/16 17:36:42;;;;;;;;;;;34.10;37.90;;;32.59;39.22;100535.50;12255272;19;19929;-86
2022/08/16 17:40:48;;;;;;;;;;;34.00;38.00;;;32.26;39.17;100506.28;12251316;19;20325;-88
2022/08/16 17:44:49;;;;;;;;;;;33.90;37.90;;;32.10;39.06;100504.25;12253375;19;19927;-89
2022/08/16 17:48:51;;;;;;;;;;;33.80;37.90;;;31.76;39.21;100476.91;12251085;19;19943;-88
2022/08/16 17:52:54;;;;;;;;;;;33.80;38.10;;;31.84;39.34;100509.00;12250903;19;19918;-88
2022/08/16 17:56:59;;;;;;;;;;;33.60;38.10;;;31.84;39.48;100522.50;12254613;19;19915;-87
2022/08/16 18:01:01;;;;;;;;;;;33.50;38.20;;;31.72;39.16;100532.41;12256397;19;19918;-89
2022/08/16 18:05:03;;;;;;;;;;;33.40;38.30;;;31.24;39.27;100480.06;12252362;19;20248;-87
2022/08/16 18:09:06;;;;;;;;;;;33.30;38.30;;;31.50;39.44;100548.28;12252629;19;19941;-87
2022/08/16 18:13:09;;;;;;;;;;;33.10;38.30;;;31.30;39.75;100540.44;12252136;19;19911;-87
2022/08/16 18:17:10;;;;;;;;;;;33.00;38.50;;;31.19;40.14;100533.91;12247446;19;19919;-86